Markstay, Canada
Current Conditions -  °F | °C
As of 11:00 AM on Saturday 22 Nov 2014 (Local Time) from CYSB Reporting Station
Blowing Snow Blowing Snow  
Wind Chill: 19°   Ceiling: 700
Heat Index: 32°   Visibility: 6mi
Dew Point: 30°   Wind: 22mph
Humidity: 93%   Direction: 210°SSW
Pressure: 29.76"   Gusts: NA
Location:  46.48°N, 80.53°W
Report Text: CYSB 221600Z 21019KT 6SM BR DRSN OVC007 00/M01 A2976 RMK SF8 SLP096
Loading
Personal Weather Stations






























Interactive Weather Map New forecast layout! Learn more

10-Day Weather Forecast

Advertisements
Track Severe Weather on mobile